createdAt,value
2017-12-31T00:00:00.443Z,22.80
2017-12-31T00:01:00.433Z,19.00
2017-12-31T00:02:00.369Z,27.50
2017-12-31T00:03:00.362Z,20.70
2017-12-31T00:04:00.305Z,28.60
2017-12-31T00:05:00.285Z,24.70
2017-12-31T00:06:00.230Z,27.70
2017-12-31T00:07:00.202Z,27.10
2017-12-31T00:08:00.164Z,21.90
2017-12-31T00:09:00.153Z,29.30
2017-12-31T00:10:00.122Z,22.70
2017-12-31T00:11:00.068Z,31.90
2017-12-31T00:12:00.045Z,23.20
2017-12-31T00:13:00.050Z,24.10
2017-12-31T00:13:59.960Z,20.70
2017-12-31T00:14:59.925Z,20.80
2017-12-31T00:15:59.904Z,21.80
2017-12-31T00:16:59.875Z,20.40
2017-12-31T00:17:59.827Z,19.30
2017-12-31T00:18:59.777Z,23.40
2017-12-31T00:19:59.760Z,16.60
2017-12-31T00:20:59.705Z,19.00
2017-12-31T00:21:59.684Z,15.30
2017-12-31T00:22:59.638Z,17.00
2017-12-31T00:23:59.621Z,19.10
2017-12-31T00:24:59.589Z,19.50
2017-12-31T00:25:59.533Z,23.40
2017-12-31T00:26:59.510Z,17.80
2017-12-31T00:27:59.465Z,22.30
2017-12-31T00:28:59.458Z,25.00
2017-12-31T00:29:59.421Z,20.10
2017-12-31T00:30:59.375Z,18.70
2017-12-31T00:31:59.323Z,22.90
2017-12-31T00:32:59.310Z,20.10
2017-12-31T00:34:00.508Z,25.60
2017-12-31T00:35:00.507Z,19.00
2017-12-31T00:35:59.178Z,17.90
2017-12-31T00:36:59.252Z,20.90
2017-12-31T00:37:59.149Z,17.30
2017-12-31T00:38:59.154Z,14.70
2017-12-31T00:39:59.100Z,17.00
2017-12-31T00:40:59.004Z,18.30
2017-12-31T00:41:58.983Z,15.20
2017-12-31T00:42:58.977Z,16.10
2017-12-31T00:43:58.918Z,16.50
2017-12-31T00:44:58.862Z,15.10
2017-12-31T00:45:58.827Z,16.30
2017-12-31T00:46:58.793Z,15.60
2017-12-31T00:47:58.756Z,15.10
2017-12-31T00:48:58.743Z,13.90
2017-12-31T00:49:58.704Z,18.00
2017-12-31T00:50:58.689Z,13.60
2017-12-31T00:51:58.646Z,14.70
2017-12-31T00:52:58.605Z,11.40
2017-12-31T00:53:58.550Z,15.40
2017-12-31T00:54:58.529Z,15.40
2017-12-31T00:55:58.483Z,15.30
2017-12-31T00:56:58.463Z,11.60
2017-12-31T00:57:58.418Z,13.50
2017-12-31T00:58:58.395Z,16.50
2017-12-31T00:59:58.370Z,11.50
2017-12-31T01:00:58.312Z,15.50
2017-12-31T01:01:58.262Z,10.50
2017-12-31T01:02:58.230Z,10.90
2017-12-31T01:03:58.193Z,13.70
2017-12-31T01:04:58.179Z,11.40
2017-12-31T01:05:58.175Z,14.10
2017-12-31T01:06:58.110Z,11.50
2017-12-31T01:07:58.054Z,11.40
2017-12-31T01:08:58.019Z,11.70
2017-12-31T01:09:57.982Z,11.60
2017-12-31T01:10:57.998Z,10.40
2017-12-31T01:11:57.915Z,15.50
2017-12-31T01:12:57.881Z,13.00
2017-12-31T01:13:57.876Z,9.90
2017-12-31T01:14:57.807Z,10.70
2017-12-31T01:15:57.770Z,12.40
2017-12-31T01:16:57.737Z,12.70
2017-12-31T01:17:57.704Z,12.20
2017-12-31T01:18:57.664Z,13.00
2017-12-31T01:19:57.670Z,10.70
2017-12-31T01:20:57.593Z,6.80
2017-12-31T01:21:57.561Z,8.70
2017-12-31T01:22:57.550Z,10.00
2017-12-31T01:23:57.506Z,8.30
2017-12-31T01:24:57.493Z,10.20
2017-12-31T01:25:57.457Z,9.80
2017-12-31T01:26:57.385Z,14.10
2017-12-31T01:27:57.348Z,9.00
2017-12-31T01:28:57.310Z,8.70
2017-12-31T01:29:57.280Z,6.60
2017-12-31T01:30:57.288Z,6.00
2017-12-31T01:31:57.210Z,8.40
2017-12-31T01:32:57.181Z,5.60
2017-12-31T01:33:57.146Z,8.10
2017-12-31T01:34:57.102Z,7.50
2017-12-31T01:35:57.081Z,9.20
2017-12-31T01:36:57.062Z,9.50
2017-12-31T01:37:57.008Z,9.40
2017-12-31T01:38:56.993Z,7.90
2017-12-31T01:39:56.937Z,10.40
2017-12-31T01:40:56.915Z,10.00
2017-12-31T01:41:56.853Z,9.50
2017-12-31T01:42:56.814Z,14.10
2017-12-31T01:43:56.794Z,7.10
2017-12-31T01:44:56.768Z,10.20
2017-12-31T01:45:56.729Z,11.80
2017-12-31T01:46:56.679Z,13.40
2017-12-31T01:47:56.639Z,12.70
2017-12-31T01:48:56.614Z,10.80
2017-12-31T01:49:56.561Z,8.40
2017-12-31T01:50:56.592Z,5.00
2017-12-31T01:51:56.492Z,7.80
2017-12-31T01:52:56.465Z,8.70
2017-12-31T01:53:56.420Z,9.90
2017-12-31T01:54:56.381Z,8.20
2017-12-31T01:55:56.345Z,9.50
2017-12-31T01:56:56.316Z,10.00
2017-12-31T01:57:56.293Z,7.50
2017-12-31T01:58:56.272Z,8.40
2017-12-31T01:59:56.204Z,13.40
2017-12-31T02:00:56.168Z,9.40
2017-12-31T02:01:56.154Z,9.40
2017-12-31T02:02:56.096Z,8.50
2017-12-31T02:03:56.063Z,8.60
2017-12-31T02:04:56.023Z,10.80
2017-12-31T02:05:55.986Z,9.20
2017-12-31T02:06:55.983Z,6.80
2017-12-31T02:07:55.914Z,7.20
2017-12-31T02:08:55.896Z,10.50
2017-12-31T02:09:55.877Z,9.50
2017-12-31T02:10:55.806Z,9.40
2017-12-31T02:11:55.765Z,5.90
2017-12-31T02:12:55.732Z,6.40
2017-12-31T02:13:55.710Z,13.10
2017-12-31T02:14:55.670Z,8.10
2017-12-31T02:15:55.622Z,8.30
2017-12-31T02:16:55.606Z,4.80
2017-12-31T02:17:55.564Z,3.60
2017-12-31T02:18:55.542Z,9.90
2017-12-31T02:19:55.482Z,7.30
2017-12-31T02:20:55.457Z,6.40
2017-12-31T02:21:55.409Z,7.70
2017-12-31T02:22:55.366Z,6.70
2017-12-31T02:23:55.352Z,7.00
2017-12-31T02:24:55.296Z,8.10
2017-12-31T02:25:55.259Z,8.20
2017-12-31T02:26:55.237Z,5.30
2017-12-31T02:27:55.191Z,7.30
2017-12-31T02:28:55.146Z,8.40
2017-12-31T02:29:55.143Z,6.80
2017-12-31T02:30:55.080Z,5.80
2017-12-31T02:31:55.087Z,12.30
2017-12-31T02:32:55.003Z,6.30
2017-12-31T02:33:54.968Z,6.70
2017-12-31T02:34:54.927Z,8.30
2017-12-31T02:35:54.961Z,7.00
2017-12-31T02:36:54.853Z,7.80
2017-12-31T02:37:54.820Z,9.60
2017-12-31T02:38:54.821Z,14.60
2017-12-31T02:39:54.788Z,10.40
2017-12-31T02:40:54.711Z,8.20
2017-12-31T02:41:54.673Z,10.40
2017-12-31T02:42:54.679Z,10.90
2017-12-31T02:43:54.604Z,10.20
2017-12-31T02:44:54.612Z,8.50
2017-12-31T02:45:54.529Z,5.40
2017-12-31T02:46:54.527Z,8.40
2017-12-31T02:47:54.456Z,6.70
2017-12-31T02:48:54.435Z,10.00
2017-12-31T02:49:54.384Z,8.50
2017-12-31T02:50:54.347Z,6.50
2017-12-31T02:51:54.308Z,8.80
2017-12-31T02:52:54.269Z,8.10
2017-12-31T02:53:54.245Z,9.50
2017-12-31T02:54:54.238Z,8.40
2017-12-31T02:55:54.164Z,9.00
2017-12-31T02:56:54.137Z,7.70
2017-12-31T02:57:54.100Z,9.60
2017-12-31T02:58:54.070Z,8.40
2017-12-31T02:59:54.012Z,6.40
2017-12-31T03:00:53.989Z,6.50
2017-12-31T03:01:53.941Z,8.30
2017-12-31T03:02:53.935Z,7.60
2017-12-31T03:03:53.890Z,7.80
2017-12-31T03:04:53.870Z,10.70
2017-12-31T03:05:53.814Z,5.60
2017-12-31T03:06:53.768Z,10.10
2017-12-31T03:07:53.725Z,8.70
2017-12-31T03:08:53.684Z,9.70
2017-12-31T03:09:53.652Z,6.30
2017-12-31T03:10:53.604Z,10.30
2017-12-31T03:11:53.628Z,9.70
2017-12-31T03:12:53.553Z,12.20
2017-12-31T03:13:53.536Z,8.70
2017-12-31T03:14:53.462Z,15.90
2017-12-31T03:15:53.425Z,10.40
2017-12-31T03:16:53.388Z,6.90
2017-12-31T03:17:53.387Z,12.00
2017-12-31T03:18:53.352Z,12.40
2017-12-31T03:19:53.332Z,13.30
2017-12-31T03:20:53.258Z,15.50
2017-12-31T03:21:53.200Z,14.80
2017-12-31T03:22:53.224Z,20.70
2017-12-31T03:23:53.151Z,27.70
2017-12-31T03:24:53.105Z,22.00
2017-12-31T03:25:53.056Z,27.80
2017-12-31T03:26:53.081Z,46.00
2017-12-31T03:27:52.987Z,39.00
2017-12-31T03:28:52.973Z,42.50
2017-12-31T03:29:52.931Z,36.70
2017-12-31T03:30:52.876Z,34.70
2017-12-31T03:31:52.850Z,33.90
2017-12-31T03:32:52.806Z,39.70
2017-12-31T03:33:52.767Z,40.80
2017-12-31T03:34:52.732Z,34.10
2017-12-31T03:35:52.706Z,40.30
2017-12-31T03:36:52.679Z,38.60
2017-12-31T03:37:52.621Z,35.50
2017-12-31T03:38:52.593Z,37.60
2017-12-31T03:39:52.550Z,29.30
2017-12-31T03:40:52.515Z,35.00
2017-12-31T03:41:52.474Z,36.00
2017-12-31T03:42:52.480Z,41.70
2017-12-31T03:43:52.430Z,32.10
2017-12-31T03:44:52.388Z,35.40
2017-12-31T03:45:52.338Z,36.10
2017-12-31T03:46:52.298Z,31.00
2017-12-31T03:47:52.281Z,32.70
2017-12-31T03:48:52.234Z,39.90
2017-12-31T03:49:52.191Z,32.20
2017-12-31T03:50:52.157Z,27.30
2017-12-31T03:51:52.120Z,36.70
2017-12-31T03:52:52.105Z,25.50
2017-12-31T03:53:52.051Z,35.20
2017-12-31T03:54:52.027Z,36.40
2017-12-31T03:55:51.998Z,30.50
2017-12-31T03:56:51.950Z,31.10
2017-12-31T03:57:51.938Z,30.70
2017-12-31T03:58:51.875Z,28.30
2017-12-31T03:59:51.840Z,34.40
2017-12-31T04:00:51.806Z,26.80
2017-12-31T04:01:51.773Z,33.20
2017-12-31T04:02:51.748Z,34.70
2017-12-31T04:03:51.725Z,29.60
2017-12-31T04:04:51.662Z,34.70
2017-12-31T04:05:51.624Z,33.80
2017-12-31T04:06:51.589Z,31.50
2017-12-31T04:07:51.554Z,30.70
2017-12-31T04:08:51.522Z,28.10
2017-12-31T04:09:51.542Z,30.90
2017-12-31T04:10:51.479Z,26.70
2017-12-31T04:11:51.459Z,38.10
2017-12-31T04:12:51.392Z,32.40
2017-12-31T04:13:51.387Z,27.00
2017-12-31T04:14:51.852Z,29.80
2017-12-31T04:15:51.314Z,29.00
2017-12-31T04:16:52.031Z,30.90
2017-12-31T04:17:52.030Z,38.60
2017-12-31T04:18:59.029Z,30.00
2017-12-31T04:19:51.151Z,25.20
2017-12-31T04:20:51.122Z,27.20
2017-12-31T04:21:51.095Z,36.50
2017-12-31T04:22:51.031Z,32.90
2017-12-31T04:23:51.007Z,28.70
2017-12-31T04:24:51.036Z,30.20
2017-12-31T04:25:50.932Z,31.70
2017-12-31T04:26:51.153Z,27.60
2017-12-31T04:27:50.860Z,33.70
2017-12-31T04:28:50.826Z,35.90
2017-12-31T04:29:50.789Z,32.50
2017-12-31T04:30:50.745Z,33.00
2017-12-31T04:31:50.715Z,28.20
2017-12-31T04:32:50.699Z,26.70
2017-12-31T04:33:50.697Z,30.00
2017-12-31T04:34:50.614Z,24.30
2017-12-31T04:35:50.599Z,29.80
2017-12-31T04:36:50.545Z,22.10
2017-12-31T04:37:50.547Z,28.60
2017-12-31T04:38:50.501Z,32.40
2017-12-31T04:39:50.431Z,29.90
2017-12-31T04:40:50.400Z,28.10
2017-12-31T04:41:50.387Z,33.60
2017-12-31T04:42:50.329Z,31.20
2017-12-31T04:43:50.295Z,27.60
2017-12-31T04:44:50.256Z,24.60
2017-12-31T04:45:50.222Z,22.10
2017-12-31T04:46:50.203Z,30.00
2017-12-31T04:47:50.175Z,27.30
2017-12-31T04:48:50.115Z,28.60
2017-12-31T04:49:50.082Z,23.50
2017-12-31T04:50:50.048Z,35.50
2017-12-31T04:51:50.064Z,30.00
2017-12-31T04:52:49.979Z,29.70
2017-12-31T04:53:49.985Z,24.20
2017-12-31T04:54:49.909Z,26.90
2017-12-31T04:55:49.892Z,28.30
2017-12-31T04:56:49.838Z,27.00
2017-12-31T04:57:49.811Z,32.90
2017-12-31T04:58:49.783Z,31.10
2017-12-31T04:59:49.752Z,37.30
2017-12-31T05:00:49.772Z,27.40
2017-12-31T05:01:49.662Z,32.70
2017-12-31T05:02:49.625Z,23.90
2017-12-31T05:03:49.600Z,21.30
2017-12-31T05:04:49.562Z,21.10
2017-12-31T05:05:49.531Z,18.80
2017-12-31T05:06:49.505Z,23.90
2017-12-31T05:07:49.515Z,32.00
2017-12-31T05:08:49.429Z,32.10
2017-12-31T05:09:49.381Z,31.80
2017-12-31T05:10:49.386Z,25.50
2017-12-31T05:11:49.319Z,31.10
2017-12-31T05:12:49.281Z,24.90
2017-12-31T05:13:49.261Z,27.60
2017-12-31T05:14:49.218Z,25.20
2017-12-31T05:15:49.172Z,25.00
2017-12-31T05:16:49.164Z,26.40
2017-12-31T05:17:49.106Z,22.40
2017-12-31T05:18:49.131Z,24.10
2017-12-31T05:19:49.062Z,26.00
2017-12-31T05:20:49.001Z,19.30
2017-12-31T05:21:48.962Z,30.70
2017-12-31T05:22:48.950Z,25.30
2017-12-31T05:23:48.899Z,23.30
2017-12-31T05:24:48.875Z,20.20
2017-12-31T05:25:48.907Z,26.00
2017-12-31T05:26:48.847Z,21.90
2017-12-31T05:27:48.775Z,24.40
2017-12-31T05:28:48.740Z,25.80
2017-12-31T05:29:48.694Z,20.60
2017-12-31T05:30:48.648Z,27.30
2017-12-31T05:31:48.698Z,23.40
2017-12-31T05:32:48.641Z,23.90
2017-12-31T05:33:48.624Z,17.90
2017-12-31T05:34:48.551Z,27.30
2017-12-31T05:35:48.504Z,24.80
2017-12-31T05:36:48.445Z,27.80
2017-12-31T05:37:48.403Z,23.20
2017-12-31T05:38:48.423Z,29.20
2017-12-31T05:39:48.347Z,23.90
2017-12-31T05:40:48.556Z,25.10
2017-12-31T05:41:48.351Z,27.00
2017-12-31T05:42:48.306Z,18.90
2017-12-31T05:43:48.206Z,28.30
2017-12-31T05:44:48.165Z,18.40
2017-12-31T05:45:48.149Z,18.10
2017-12-31T05:46:48.096Z,21.30
2017-12-31T05:47:48.106Z,24.00
2017-12-31T05:48:48.028Z,20.20
2017-12-31T05:49:47.990Z,15.50
2017-12-31T05:50:47.969Z,21.60
2017-12-31T05:51:47.949Z,20.90
2017-12-31T05:52:47.885Z,24.00
2017-12-31T05:53:47.885Z,19.80
2017-12-31T05:54:47.839Z,24.50
2017-12-31T05:55:47.827Z,15.80
2017-12-31T05:56:47.778Z,27.00
2017-12-31T05:57:47.787Z,20.70
2017-12-31T05:58:47.676Z,18.50
2017-12-31T05:59:47.664Z,13.80
2017-12-31T06:00:47.630Z,21.30
2017-12-31T06:01:47.604Z,20.70
2017-12-31T06:02:47.598Z,20.60
2017-12-31T06:03:47.531Z,18.30
2017-12-31T06:04:47.484Z,24.60
2017-12-31T06:05:47.434Z,19.10
2017-12-31T06:06:47.430Z,22.10
2017-12-31T06:07:47.396Z,20.80
2017-12-31T06:08:47.337Z,14.10
2017-12-31T06:09:47.314Z,14.10
2017-12-31T06:10:47.351Z,14.90
2017-12-31T06:11:47.275Z,21.70
2017-12-31T06:12:47.196Z,20.20
2017-12-31T06:13:47.179Z,14.00
2017-12-31T06:14:47.130Z,17.50
2017-12-31T06:15:47.139Z,15.80
2017-12-31T06:16:47.462Z,17.50
2017-12-31T06:17:47.106Z,18.90
2017-12-31T06:18:47.018Z,19.60
2017-12-31T06:19:46.951Z,16.30
2017-12-31T06:20:46.920Z,19.00
2017-12-31T06:21:46.881Z,17.90
2017-12-31T06:22:46.897Z,22.80
2017-12-31T06:23:46.818Z,17.90
2017-12-31T06:24:46.796Z,21.10
2017-12-31T06:25:46.759Z,18.80
2017-12-31T06:26:46.735Z,19.30
2017-12-31T06:27:46.739Z,26.20
2017-12-31T06:28:46.670Z,14.00
2017-12-31T06:29:46.640Z,14.70
2017-12-31T06:30:46.577Z,18.60
2017-12-31T06:31:46.540Z,14.30
2017-12-31T06:32:46.523Z,16.50
2017-12-31T06:33:46.469Z,9.40
2017-12-31T06:34:46.444Z,16.60
2017-12-31T06:35:46.420Z,16.50
2017-12-31T06:36:46.365Z,15.10
2017-12-31T06:37:46.334Z,14.20
2017-12-31T06:38:46.337Z,17.00
2017-12-31T06:39:46.314Z,14.00
2017-12-31T06:40:46.234Z,15.70
2017-12-31T06:41:46.219Z,15.70
2017-12-31T06:42:46.166Z,16.20
2017-12-31T06:43:46.140Z,14.70
2017-12-31T06:44:46.094Z,12.10
2017-12-31T06:45:46.067Z,21.10
2017-12-31T06:46:46.024Z,13.30
2017-12-31T06:47:46.047Z,14.60
2017-12-31T06:48:45.960Z,12.40
2017-12-31T06:49:46.015Z,14.10
2017-12-31T06:50:45.900Z,16.40
2017-12-31T06:51:45.855Z,12.70
2017-12-31T06:52:45.829Z,14.80
2017-12-31T06:53:45.801Z,11.20
2017-12-31T06:54:45.761Z,12.90
2017-12-31T06:55:45.727Z,12.50
2017-12-31T06:56:45.780Z,12.30
2017-12-31T06:57:45.651Z,14.80
2017-12-31T06:58:45.611Z,9.90
2017-12-31T06:59:45.579Z,10.30
2017-12-31T07:00:45.545Z,12.60
2017-12-31T07:01:45.509Z,13.90
2017-12-31T07:02:45.473Z,11.60
2017-12-31T07:03:45.442Z,12.30
2017-12-31T07:04:45.407Z,15.00
2017-12-31T07:05:45.610Z,18.30
2017-12-31T07:06:45.339Z,12.70
2017-12-31T07:07:45.304Z,13.00
2017-12-31T07:08:45.269Z,11.20
2017-12-31T07:09:45.234Z,11.30
2017-12-31T07:10:45.209Z,12.50
2017-12-31T07:11:45.167Z,13.60
2017-12-31T07:12:45.132Z,16.10
2017-12-31T07:13:45.128Z,13.70
2017-12-31T07:14:45.063Z,11.50
2017-12-31T07:15:45.029Z,13.30
2017-12-31T07:16:44.995Z,12.60
2017-12-31T07:17:44.960Z,12.30
2017-12-31T07:18:44.926Z,17.20
2017-12-31T07:19:44.893Z,13.80
2017-12-31T07:20:44.863Z,15.90
2017-12-31T07:21:44.822Z,12.00
2017-12-31T07:22:44.786Z,12.70
2017-12-31T07:23:44.754Z,12.30
2017-12-31T07:24:44.721Z,14.50
2017-12-31T07:25:44.682Z,10.30
2017-12-31T07:26:44.651Z,11.60
2017-12-31T07:27:44.617Z,13.30
2017-12-31T07:28:44.582Z,10.10
2017-12-31T07:29:44.548Z,17.80
2017-12-31T07:30:44.513Z,11.00
2017-12-31T07:31:44.479Z,12.10
2017-12-31T07:32:44.444Z,10.50
2017-12-31T07:33:44.409Z,8.10
2017-12-31T07:34:44.370Z,9.40
2017-12-31T07:35:44.341Z,10.50
2017-12-31T07:36:44.309Z,10.00
2017-12-31T07:37:44.269Z,13.60
2017-12-31T07:38:44.236Z,15.30
2017-12-31T07:39:44.202Z,10.60
2017-12-31T07:40:44.168Z,13.60
2017-12-31T07:41:44.132Z,14.30
2017-12-31T07:42:44.099Z,11.40
2017-12-31T07:43:44.064Z,9.70
2017-12-31T07:44:44.030Z,11.00
2017-12-31T07:45:43.994Z,15.50
2017-12-31T07:46:43.961Z,10.50
2017-12-31T07:47:43.923Z,14.50
2017-12-31T07:48:43.891Z,13.50
2017-12-31T07:49:43.857Z,11.20
2017-12-31T07:50:43.823Z,14.90
2017-12-31T07:51:43.787Z,10.30
2017-12-31T07:52:43.752Z,9.30
2017-12-31T07:53:43.718Z,13.80
2017-12-31T07:54:43.684Z,13.20
2017-12-31T07:55:43.650Z,9.80
2017-12-31T07:56:43.717Z,11.50
2017-12-31T07:57:43.580Z,14.30
2017-12-31T07:58:43.546Z,11.80
2017-12-31T07:59:43.510Z,8.20
2017-12-31T08:00:43.477Z,11.80
2017-12-31T08:01:43.862Z,10.70
2017-12-31T08:02:43.408Z,12.40
2017-12-31T08:03:43.375Z,8.30
2017-12-31T08:04:43.340Z,13.90
2017-12-31T08:05:43.305Z,9.40
2017-12-31T08:06:43.272Z,12.20
2017-12-31T08:07:43.237Z,16.60
2017-12-31T08:08:43.201Z,14.80
2017-12-31T08:09:43.168Z,10.60
2017-12-31T08:10:43.134Z,14.60
2017-12-31T08:11:43.101Z,11.60
2017-12-31T08:12:43.066Z,16.80
2017-12-31T08:13:43.032Z,13.50
2017-12-31T08:14:43.009Z,13.70
2017-12-31T08:15:42.964Z,13.90
2017-12-31T08:16:42.930Z,12.90
2017-12-31T08:17:42.899Z,10.10
2017-12-31T08:18:42.871Z,12.40
2017-12-31T08:19:42.825Z,13.60
2017-12-31T08:20:43.357Z,15.50
2017-12-31T08:21:42.758Z,10.70
2017-12-31T08:22:42.725Z,13.50
2017-12-31T08:23:43.970Z,19.20
2017-12-31T08:24:42.656Z,16.30
2017-12-31T08:25:42.622Z,12.70
2017-12-31T08:26:42.589Z,10.80
2017-12-31T08:27:49.132Z,11.70
2017-12-31T08:28:42.521Z,15.30
2017-12-31T08:29:42.487Z,8.80
2017-12-31T08:30:42.451Z,10.50
2017-12-31T08:31:42.417Z,16.80
2017-12-31T08:32:42.386Z,14.00
2017-12-31T08:33:42.348Z,16.80
2017-12-31T08:34:42.315Z,14.70
2017-12-31T08:35:42.284Z,11.40
2017-12-31T08:36:42.249Z,19.30
2017-12-31T08:37:42.215Z,9.90
2017-12-31T08:38:42.181Z,11.80
2017-12-31T08:39:42.146Z,12.90
2017-12-31T08:40:42.111Z,23.00
2017-12-31T08:41:42.080Z,11.80
2017-12-31T08:42:42.044Z,13.80
2017-12-31T08:43:42.011Z,12.60
2017-12-31T08:44:41.978Z,13.60
2017-12-31T08:45:41.942Z,16.10
2017-12-31T08:46:41.943Z,11.20
2017-12-31T08:47:41.878Z,13.40
2017-12-31T08:48:41.843Z,15.40
2017-12-31T08:49:41.836Z,12.80
2017-12-31T08:50:41.780Z,15.00
2017-12-31T08:51:41.742Z,14.20
2017-12-31T08:52:41.708Z,15.10
2017-12-31T08:53:41.674Z,21.40
2017-12-31T08:54:41.638Z,12.70
2017-12-31T08:55:41.614Z,11.80
2017-12-31T08:56:41.573Z,10.80
2017-12-31T08:57:41.537Z,15.60
2017-12-31T08:58:41.504Z,11.80
2017-12-31T08:59:41.470Z,13.80
2017-12-31T09:00:41.437Z,9.40
2017-12-31T09:01:41.402Z,12.50
2017-12-31T09:02:41.371Z,17.40
2017-12-31T09:03:41.336Z,12.60
2017-12-31T09:04:41.305Z,12.90
2017-12-31T09:05:41.268Z,14.60
2017-12-31T09:06:41.233Z,12.50
2017-12-31T09:07:41.203Z,17.90
2017-12-31T09:08:41.170Z,15.20
2017-12-31T09:09:41.133Z,13.60
2017-12-31T09:10:41.100Z,12.60
2017-12-31T09:11:41.069Z,8.90
2017-12-31T09:12:41.032Z,11.60
2017-12-31T09:13:41.000Z,10.40
2017-12-31T09:14:40.965Z,12.30
2017-12-31T09:15:40.931Z,13.20
2017-12-31T09:16:40.898Z,10.90
2017-12-31T09:17:40.864Z,14.70
2017-12-31T09:18:41.383Z,12.30
2017-12-31T09:19:40.797Z,16.00
2017-12-31T09:20:40.762Z,13.20
2017-12-31T09:21:40.729Z,9.30
2017-12-31T09:22:40.696Z,8.90
2017-12-31T09:23:40.661Z,13.00
2017-12-31T09:24:40.628Z,9.60
2017-12-31T09:25:40.593Z,13.90
2017-12-31T09:26:40.560Z,6.80
2017-12-31T09:27:40.527Z,10.50
2017-12-31T09:28:40.496Z,11.80
2017-12-31T09:29:40.458Z,11.70
2017-12-31T09:30:40.701Z,10.40
2017-12-31T09:31:40.392Z,8.50
2017-12-31T09:32:40.358Z,8.80
2017-12-31T09:33:40.322Z,7.00
2017-12-31T09:34:40.290Z,12.30
2017-12-31T09:35:40.254Z,13.90
2017-12-31T09:36:40.227Z,12.00
2017-12-31T09:37:40.193Z,12.80
2017-12-31T09:38:40.155Z,9.20
2017-12-31T09:39:40.121Z,11.80
2017-12-31T09:40:40.087Z,11.70
2017-12-31T09:41:40.054Z,13.30
2017-12-31T09:42:40.020Z,12.40
2017-12-31T09:43:39.982Z,8.30
2017-12-31T09:44:39.953Z,8.90
2017-12-31T09:45:39.918Z,8.20
2017-12-31T09:46:39.886Z,10.40
2017-12-31T09:47:39.851Z,8.80
2017-12-31T09:48:39.819Z,8.10
2017-12-31T09:49:39.784Z,11.80
2017-12-31T09:50:39.750Z,8.80
2017-12-31T09:51:39.716Z,8.30
2017-12-31T09:52:39.684Z,11.20
2017-12-31T09:53:39.649Z,8.20
2017-12-31T09:54:39.617Z,6.70
2017-12-31T09:55:40.087Z,8.80
2017-12-31T09:56:39.549Z,11.50
2017-12-31T09:57:39.517Z,11.40
2017-12-31T09:58:39.483Z,10.70
2017-12-31T09:59:39.451Z,12.70
2017-12-31T10:00:39.455Z,9.30
2017-12-31T10:01:39.384Z,9.70
2017-12-31T10:02:39.352Z,9.70
2017-12-31T10:03:39.316Z,7.80
2017-12-31T10:04:39.288Z,11.00
2017-12-31T10:05:39.251Z,8.90
2017-12-31T10:06:39.220Z,5.80
2017-12-31T10:07:39.187Z,9.60
2017-12-31T10:08:39.154Z,8.10
2017-12-31T10:09:39.122Z,10.00
2017-12-31T10:10:39.087Z,6.90
2017-12-31T10:11:39.054Z,7.30
2017-12-31T10:12:39.022Z,12.10
2017-12-31T10:13:38.990Z,7.70
2017-12-31T10:14:38.980Z,10.90
2017-12-31T10:15:38.924Z,9.20
2017-12-31T10:16:38.889Z,12.30
2017-12-31T10:17:45.784Z,9.80
2017-12-31T10:18:38.827Z,11.20
2017-12-31T10:19:38.791Z,6.70
2017-12-31T10:20:38.758Z,11.20
2017-12-31T10:21:38.725Z,9.40
2017-12-31T10:22:38.692Z,8.90
2017-12-31T10:23:38.827Z,7.80
2017-12-31T10:24:38.646Z,8.30
2017-12-31T10:25:38.591Z,8.70
2017-12-31T10:26:38.559Z,7.80
2017-12-31T10:27:38.525Z,7.70
2017-12-31T10:28:38.497Z,7.80
2017-12-31T10:29:38.457Z,10.90
2017-12-31T10:30:38.425Z,11.60
2017-12-31T10:31:38.408Z,9.00
2017-12-31T10:32:38.360Z,9.40
2017-12-31T10:33:38.325Z,9.30
2017-12-31T10:34:38.295Z,9.30
2017-12-31T10:35:38.260Z,9.70
2017-12-31T10:36:38.226Z,10.30
2017-12-31T10:37:38.915Z,8.80
2017-12-31T10:38:38.163Z,11.50
2017-12-31T10:39:38.125Z,6.90
2017-12-31T10:41:40.079Z,8.00
2017-12-31T10:42:38.029Z,13.50
2017-12-31T10:43:37.999Z,11.50
2017-12-31T10:44:37.966Z,12.50
2017-12-31T10:45:37.932Z,9.40
2017-12-31T10:46:37.899Z,12.00
2017-12-31T10:47:37.865Z,11.20
2017-12-31T10:48:37.830Z,7.90
2017-12-31T10:49:37.802Z,9.60
2017-12-31T10:50:37.767Z,7.60
2017-12-31T10:51:37.738Z,9.90
2017-12-31T10:52:37.698Z,8.10
2017-12-31T10:53:37.666Z,8.70
2017-12-31T10:54:37.631Z,10.20
2017-12-31T10:55:37.601Z,13.40
2017-12-31T10:56:37.568Z,8.80
2017-12-31T10:57:37.532Z,12.40
2017-12-31T10:58:37.502Z,7.50
2017-12-31T10:59:37.470Z,9.20
2017-12-31T11:00:37.436Z,8.80
2017-12-31T11:01:37.403Z,7.90
2017-12-31T11:02:37.368Z,10.70
2017-12-31T11:03:37.341Z,12.90
2017-12-31T11:04:37.305Z,10.00
2017-12-31T11:05:37.272Z,8.00
2017-12-31T11:06:37.239Z,26.70
2017-12-31T11:07:37.208Z,65.00
2017-12-31T11:08:37.175Z,30.90
2017-12-31T11:09:37.142Z,54.60
2017-12-31T11:10:37.110Z,42.00
2017-12-31T11:11:37.083Z,11.20
2017-12-31T11:12:37.045Z,6.00
2017-12-31T11:13:37.015Z,5.80
2017-12-31T11:14:36.988Z,6.80
2017-12-31T11:15:36.948Z,6.60
2017-12-31T11:16:36.958Z,7.70
2017-12-31T11:17:36.891Z,7.90
2017-12-31T11:18:36.901Z,10.10
2017-12-31T11:19:36.860Z,9.00
2017-12-31T11:20:36.843Z,5.30
2017-12-31T11:21:36.918Z,8.30
2017-12-31T11:22:36.757Z,9.50
2017-12-31T11:23:36.710Z,6.10
2017-12-31T11:24:36.688Z,6.40
2017-12-31T11:25:36.633Z,8.20
2017-12-31T11:26:36.613Z,7.60
2017-12-31T11:27:36.638Z,10.10
2017-12-31T11:28:38.100Z,8.40
2017-12-31T11:29:36.543Z,7.70
2017-12-31T11:30:36.488Z,7.90
2017-12-31T11:31:36.452Z,6.80
2017-12-31T11:32:36.413Z,7.60
2017-12-31T11:33:36.390Z,7.70
2017-12-31T11:34:36.392Z,5.20
2017-12-31T11:35:36.328Z,4.70
2017-12-31T11:36:36.321Z,8.70
2017-12-31T11:37:36.277Z,6.50
2017-12-31T11:38:36.222Z,8.60
2017-12-31T11:39:36.208Z,8.90
2017-12-31T11:40:36.229Z,7.80
2017-12-31T11:41:36.139Z,5.70
2017-12-31T11:42:36.125Z,6.00
2017-12-31T11:43:36.100Z,6.80
2017-12-31T11:44:36.058Z,5.00
2017-12-31T11:45:36.095Z,5.00
2017-12-31T11:46:37.091Z,7.50
2017-12-31T11:47:37.092Z,8.00
2017-12-31T11:48:35.941Z,6.30
2017-12-31T11:49:35.897Z,5.90
2017-12-31T11:50:35.916Z,7.50
2017-12-31T11:51:35.901Z,8.40
2017-12-31T11:52:35.820Z,10.00
2017-12-31T11:53:35.785Z,6.60
2017-12-31T11:54:35.733Z,3.70
2017-12-31T11:55:35.754Z,7.50
2017-12-31T11:56:35.682Z,7.00
2017-12-31T11:57:35.665Z,9.40
2017-12-31T11:58:35.643Z,8.40
2017-12-31T11:59:35.649Z,5.20
2017-12-31T12:00:35.610Z,5.80
2017-12-31T12:01:35.545Z,6.30
2017-12-31T12:02:35.504Z,8.70
2017-12-31T12:03:35.468Z,8.70
2017-12-31T12:04:35.463Z,6.40
2017-12-31T12:05:35.437Z,5.90
2017-12-31T12:06:35.383Z,6.60
2017-12-31T12:07:35.398Z,6.70
2017-12-31T12:08:35.319Z,8.40
2017-12-31T12:09:35.283Z,6.70
2017-12-31T12:10:35.285Z,6.00
2017-12-31T12:11:35.272Z,5.90
2017-12-31T12:12:35.217Z,7.20
2017-12-31T12:13:35.176Z,6.50
2017-12-31T12:14:35.137Z,7.60
2017-12-31T12:15:35.117Z,3.90
2017-12-31T12:16:35.176Z,6.90
2017-12-31T12:17:35.086Z,6.70
2017-12-31T12:18:35.041Z,5.80
2017-12-31T12:19:34.975Z,6.00
2017-12-31T12:20:34.937Z,6.40
2017-12-31T12:21:34.933Z,6.80
2017-12-31T12:22:34.925Z,7.20
2017-12-31T12:23:34.865Z,5.50
2017-12-31T12:24:34.856Z,7.20
2017-12-31T12:25:34.813Z,5.90
2017-12-31T12:26:34.760Z,6.80
2017-12-31T12:27:34.716Z,8.20
2017-12-31T12:28:34.678Z,10.00
2017-12-31T12:29:34.696Z,3.00
2017-12-31T12:30:34.685Z,5.00
2017-12-31T12:31:34.598Z,4.40
2017-12-31T12:32:34.555Z,6.60
2017-12-31T12:33:34.520Z,5.70
2017-12-31T12:34:34.545Z,7.80
2017-12-31T12:35:34.514Z,5.70
2017-12-31T12:36:34.457Z,7.10
2017-12-31T12:37:34.399Z,9.90
2017-12-31T12:38:34.359Z,6.90
2017-12-31T12:39:34.326Z,7.30
2017-12-31T12:40:34.297Z,6.00
2017-12-31T12:41:34.261Z,11.00
2017-12-31T12:42:34.246Z,8.90
2017-12-31T12:43:34.211Z,9.50
2017-12-31T12:44:34.168Z,6.00
2017-12-31T12:45:34.132Z,5.30
2017-12-31T12:46:34.122Z,7.90
2017-12-31T12:47:34.069Z,5.20
2017-12-31T12:48:34.095Z,8.20
2017-12-31T12:49:34.002Z,5.30
2017-12-31T12:50:34.058Z,4.80
2017-12-31T12:51:33.937Z,7.50
2017-12-31T12:52:33.932Z,6.20
2017-12-31T12:53:33.885Z,9.40
2017-12-31T12:54:33.858Z,3.80
2017-12-31T12:55:33.820Z,8.70
2017-12-31T12:56:33.831Z,6.50
2017-12-31T12:57:33.765Z,7.30
2017-12-31T12:58:33.801Z,7.50
2017-12-31T12:59:33.754Z,8.20
2017-12-31T13:00:33.661Z,3.40
2017-12-31T13:01:33.680Z,5.50